createdAt,value
2022-09-23T00:01:11.396Z,87.18
2022-09-23T00:03:42.041Z,87.54
2022-09-23T00:06:18.379Z,87.45
2022-09-23T00:08:45.364Z,87.45
2022-09-23T00:11:15.960Z,87.75
2022-09-23T00:13:46.794Z,87.71
2022-09-23T00:16:18.099Z,87.67
2022-09-23T00:18:45.350Z,87.83
2022-09-23T00:21:14.615Z,88.12
2022-09-23T00:23:43.693Z,88.11
2022-09-23T00:26:15.872Z,88.31
2022-09-23T00:28:43.518Z,88.19
2022-09-23T00:31:17.930Z,88.02
2022-09-23T00:33:45.137Z,88.16
2022-09-23T00:36:16.552Z,88.19
2022-09-23T00:38:44.806Z,88.46
2022-09-23T00:41:12.235Z,88.32
2022-09-23T00:43:44.033Z,87.97
2022-09-23T00:46:37.211Z,87.88
2022-09-23T00:49:11.876Z,87.59
2022-09-23T00:51:50.661Z,87.50
2022-09-23T00:54:19.056Z,87.54
2022-09-23T00:56:45.989Z,87.55
2022-09-23T00:59:14.131Z,87.66
2022-09-23T01:01:41.179Z,87.82
2022-09-23T01:04:08.586Z,87.99
2022-09-23T01:06:35.644Z,88.28
2022-09-23T01:09:02.756Z,88.26
2022-09-23T01:11:51.814Z,88.06
2022-09-23T01:14:43.184Z,87.94
2022-09-23T01:17:37.236Z,88.08
2022-09-23T01:20:31.884Z,88.22
2022-09-23T01:23:01.540Z,88.10
2022-09-23T01:25:44.821Z,88.08
2022-09-23T01:28:57.492Z,88.32
2022-09-23T01:32:47.572Z,88.34
2022-09-23T01:35:23.908Z,88.31
2022-09-23T01:38:16.464Z,88.43
2022-09-23T01:40:59.977Z,88.69
2022-09-23T01:43:47.960Z,88.60
2022-09-23T01:46:29.215Z,88.27
2022-09-23T01:49:09.005Z,88.31
2022-09-23T01:51:46.316Z,88.28
2022-09-23T01:54:24.588Z,88.18
2022-09-23T01:57:04.321Z,88.18
2022-09-23T01:59:39.682Z,88.00
2022-09-23T02:02:23.220Z,88.15
2022-09-23T02:05:04.588Z,87.96
2022-09-23T02:07:59.507Z,88.16
2022-09-23T02:10:36.210Z,87.95
2022-09-23T02:13:10.278Z,88.34
2022-09-23T02:15:49.904Z,88.63
2022-09-23T02:18:23.245Z,88.57
2022-09-23T02:20:59.121Z,88.39
2022-09-23T02:23:44.491Z,88.73
2022-09-23T02:26:21.853Z,88.79
2022-09-23T02:29:25.326Z,88.77
2022-09-23T02:32:15.099Z,89.22
2022-09-23T02:35:08.194Z,88.54
2022-09-23T02:37:53.944Z,88.92
2022-09-23T02:40:28.840Z,89.08
2022-09-23T02:43:19.952Z,88.80
2022-09-23T02:45:47.681Z,88.49
2022-09-23T02:48:22.373Z,88.54
2022-09-23T02:50:49.524Z,88.72
2022-09-23T02:53:16.405Z,88.59
2022-09-23T02:55:43.663Z,88.43
2022-09-23T02:58:13.521Z,88.38
2022-09-23T03:01:24.700Z,88.39
2022-09-23T03:04:14.894Z,88.38
2022-09-23T03:07:02.236Z,88.19
2022-09-23T03:09:56.146Z,88.53
2022-09-23T03:12:36.408Z,88.34
2022-09-23T03:15:51.569Z,88.01
2022-09-23T03:18:40.525Z,88.07
2022-09-23T03:21:16.190Z,87.98
2022-09-23T03:23:44.945Z,88.25
2022-09-23T03:26:20.799Z,88.00
2022-09-23T03:28:48.764Z,88.20
2022-09-23T03:31:16.593Z,88.06
2022-09-23T03:33:59.333Z,88.16
2022-09-23T03:36:51.674Z,88.33
2022-09-23T03:39:27.874Z,88.36
2022-09-23T03:41:59.716Z,88.54
2022-09-23T03:44:29.171Z,88.36
2022-09-23T03:47:02.453Z,88.55
2022-09-23T03:49:36.313Z,88.45
2022-09-23T03:52:03.864Z,88.89
2022-09-23T03:54:31.053Z,89.11
2022-09-23T03:56:58.820Z,89.17
2022-09-23T03:59:27.253Z,89.38
2022-09-23T04:01:55.729Z,89.36
2022-09-23T04:04:22.653Z,89.20
2022-09-23T04:06:49.447Z,89.18
2022-09-23T04:09:16.403Z,89.63
2022-09-23T04:11:43.265Z,89.49
2022-09-23T04:14:10.567Z,89.65
2022-09-23T04:16:37.406Z,89.77
2022-09-23T04:19:05.107Z,89.66
2022-09-23T04:21:32.761Z,89.89
2022-09-23T04:23:59.538Z,89.71
2022-09-23T04:26:26.296Z,90.05
2022-09-23T04:28:55.101Z,89.51
2022-09-23T04:31:23.985Z,89.25
2022-09-23T04:33:53.213Z,89.51
2022-09-23T04:36:20.341Z,89.23
2022-09-23T04:38:48.874Z,89.34
2022-09-23T04:41:17.202Z,89.35
2022-09-23T04:43:44.249Z,89.43
2022-09-23T04:46:14.003Z,89.57
2022-09-23T04:48:42.082Z,89.64
2022-09-23T04:51:13.796Z,89.72
2022-09-23T04:53:43.901Z,89.78
2022-09-23T04:56:14.868Z,89.90
2022-09-23T04:58:42.454Z,89.79
2022-09-23T05:01:19.454Z,89.57
2022-09-23T05:03:47.191Z,89.72
2022-09-23T05:06:15.237Z,89.56
2022-09-23T05:08:47.908Z,89.56
2022-09-23T05:11:14.772Z,89.44
2022-09-23T05:13:41.589Z,89.66
2022-09-23T05:16:12.623Z,89.58
2022-09-23T05:18:42.933Z,89.62
2022-09-23T05:21:11.591Z,89.38
2022-09-23T05:23:39.923Z,89.19
2022-09-23T05:26:12.591Z,89.15
2022-09-23T05:28:39.873Z,89.57
2022-09-23T05:31:20.376Z,89.07
2022-09-23T05:33:57.604Z,88.98
2022-09-23T05:36:26.258Z,89.56
2022-09-23T05:38:53.520Z,89.50
2022-09-23T05:41:23.283Z,89.68
2022-09-23T05:43:51.954Z,89.32
2022-09-23T05:46:22.616Z,89.39
2022-09-23T05:48:50.082Z,89.56
2022-09-23T05:51:28.750Z,89.23
2022-09-23T05:53:58.487Z,89.69
2022-09-23T05:56:27.981Z,89.71
2022-09-23T05:58:57.295Z,89.54
2022-09-23T06:01:28.420Z,89.75
2022-09-23T06:03:57.349Z,90.03
2022-09-23T06:06:37.448Z,90.60
2022-09-23T06:09:05.746Z,90.86
2022-09-23T06:11:35.151Z,91.23
2022-09-23T06:14:02.719Z,91.25
2022-09-23T06:16:34.019Z,91.60
2022-09-23T06:19:06.535Z,91.76
2022-09-23T06:21:37.970Z,91.64
2022-09-23T06:24:07.005Z,91.48
2022-09-23T06:26:35.331Z,91.32
2022-09-23T06:29:03.799Z,91.31
2022-09-23T06:31:30.956Z,91.25
2022-09-23T06:34:07.810Z,91.27
2022-09-23T06:36:43.317Z,91.00
2022-09-23T06:39:10.446Z,90.71
2022-09-23T06:41:37.254Z,90.63
2022-09-23T06:44:04.190Z,90.43
2022-09-23T06:46:31.998Z,90.44
2022-09-23T06:48:59.432Z,90.31
2022-09-23T06:51:26.262Z,90.24
2022-09-23T06:53:53.082Z,89.85
2022-09-23T06:56:22.176Z,89.87
2022-09-23T06:58:51.966Z,89.82
2022-09-23T07:01:20.011Z,89.76
2022-09-23T07:03:48.506Z,89.71
2022-09-23T07:06:17.033Z,90.01
2022-09-23T07:08:47.243Z,89.95
2022-09-23T07:11:15.840Z,89.66
2022-09-23T07:13:43.387Z,89.57
2022-09-23T07:16:11.475Z,89.26
2022-09-23T07:18:39.204Z,88.55
2022-09-23T07:21:16.011Z,88.58
2022-09-23T07:23:47.915Z,88.19
2022-09-23T07:26:16.862Z,86.62
2022-09-23T07:28:44.065Z,85.54
2022-09-23T07:31:27.217Z,84.34
2022-09-23T07:34:02.412Z,82.88
2022-09-23T07:36:32.867Z,81.90
2022-09-23T07:39:04.007Z,81.16
2022-09-23T07:41:32.474Z,80.35
2022-09-23T07:44:00.716Z,80.44
2022-09-23T07:46:31.653Z,79.83
2022-09-23T07:49:00.537Z,79.08
2022-09-23T07:51:36.593Z,78.09
2022-09-23T07:54:10.317Z,76.98
2022-09-23T07:56:38.509Z,75.75
2022-09-23T07:59:09.124Z,74.77
2022-09-23T08:01:41.426Z,74.16
2022-09-23T08:04:29.811Z,73.58
2022-09-23T08:07:03.441Z,72.55
2022-09-23T08:09:41.578Z,72.69
2022-09-23T08:12:16.062Z,72.13
2022-09-23T08:14:43.358Z,71.15
2022-09-23T08:17:12.616Z,71.21
2022-09-23T08:19:39.453Z,70.45
2022-09-23T08:22:06.245Z,70.20
2022-09-23T08:24:33.296Z,70.24
2022-09-23T08:27:00.144Z,69.00
2022-09-23T08:29:27.063Z,67.67
2022-09-23T08:31:54.383Z,68.45
2022-09-23T08:34:22.910Z,68.53
2022-09-23T08:36:50.419Z,67.23
2022-09-23T08:39:20.379Z,68.13
2022-09-23T08:42:14.034Z,66.36
2022-09-23T08:44:47.961Z,68.35
2022-09-23T08:47:28.116Z,68.26
2022-09-23T08:50:20.954Z,66.85
2022-09-23T08:52:59.092Z,67.57
2022-09-23T08:55:39.171Z,67.63
2022-09-23T08:58:28.305Z,67.32
2022-09-23T09:01:24.953Z,66.13
2022-09-23T09:03:55.831Z,66.66
2022-09-23T09:06:45.596Z,67.08
2022-09-23T09:09:33.944Z,67.23
2022-09-23T09:12:17.829Z,66.96
2022-09-23T09:14:53.810Z,67.83
2022-09-23T09:17:39.914Z,67.09
2022-09-23T09:20:29.917Z,66.63
2022-09-23T09:23:00.746Z,66.83
2022-09-23T09:25:49.709Z,65.53
2022-09-23T09:28:31.236Z,65.61
2022-09-23T09:31:02.907Z,65.44
2022-09-23T09:33:45.046Z,64.76
2022-09-23T09:36:40.591Z,65.50
2022-09-23T09:39:13.492Z,65.29
2022-09-23T09:42:00.305Z,64.96
2022-09-23T09:44:27.263Z,65.80
2022-09-23T09:47:17.338Z,64.65
2022-09-23T09:49:54.075Z,64.55
2022-09-23T09:52:29.965Z,64.82
2022-09-23T09:55:28.001Z,64.59
2022-09-23T09:58:05.906Z,64.49
2022-09-23T10:00:43.156Z,64.15
2022-09-23T10:03:13.474Z,64.58
2022-09-23T10:05:46.302Z,64.26
2022-09-23T10:08:22.043Z,64.63
2022-09-23T10:11:04.229Z,64.81
2022-09-23T10:13:32.114Z,65.05
2022-09-23T10:16:01.682Z,64.54
2022-09-23T10:18:49.771Z,63.33
2022-09-23T10:21:25.498Z,63.70
2022-09-23T10:24:01.697Z,63.10
2022-09-23T10:27:04.615Z,63.25
2022-09-23T10:29:40.939Z,63.12
2022-09-23T10:32:27.541Z,63.34
2022-09-23T10:35:14.057Z,62.32
2022-09-23T10:37:59.866Z,61.50
2022-09-23T10:40:49.129Z,61.47
2022-09-23T10:44:13.590Z,60.54
2022-09-23T10:47:02.965Z,61.28
2022-09-23T10:49:44.847Z,61.11
2022-09-23T10:52:49.235Z,61.21
2022-09-23T10:55:29.547Z,60.13
2022-09-23T10:58:24.845Z,60.53
2022-09-23T11:01:20.463Z,60.90
2022-09-23T11:04:02.327Z,61.11
2022-09-23T11:07:10.645Z,60.87
2022-09-23T11:09:52.288Z,60.47
2022-09-23T11:12:44.369Z,59.84
2022-09-23T11:15:32.819Z,59.88
2022-09-23T11:18:33.622Z,59.33
2022-09-23T11:21:42.701Z,60.07
2022-09-23T11:24:21.408Z,60.20
2022-09-23T11:27:20.459Z,59.05
2022-09-23T11:29:56.532Z,58.62
2022-09-23T11:33:14.338Z,58.48
2022-09-23T11:35:48.668Z,57.83
2022-09-23T11:38:26.113Z,56.74
2022-09-23T11:41:00.904Z,56.62
2022-09-23T11:43:34.957Z,57.07
2022-09-23T11:46:39.281Z,56.06
2022-09-23T11:49:30.131Z,55.94
2022-09-23T11:52:27.633Z,56.86
2022-09-23T11:55:04.331Z,56.57
2022-09-23T11:57:46.968Z,55.32
2022-09-23T12:00:26.938Z,54.37
2022-09-23T12:03:43.115Z,54.15
2022-09-23T12:06:23.006Z,53.03
2022-09-23T12:09:08.274Z,52.25
2022-09-23T12:11:49.247Z,52.24
2022-09-23T12:14:27.749Z,52.17
2022-09-23T12:17:28.129Z,52.51
2022-09-23T12:20:34.891Z,51.35
2022-09-23T12:23:22.691Z,51.81
2022-09-23T12:26:07.930Z,52.22
2022-09-23T12:28:45.238Z,52.75
2022-09-23T12:31:17.186Z,51.95
2022-09-23T12:33:54.971Z,50.47
2022-09-23T12:36:30.308Z,50.40
2022-09-23T12:39:15.553Z,50.66
2022-09-23T12:41:48.007Z,51.24
2022-09-23T12:44:29.776Z,51.46
2022-09-23T12:47:14.638Z,51.04
2022-09-23T12:49:43.160Z,51.56
2022-09-23T12:52:13.527Z,51.13
2022-09-23T12:54:43.013Z,50.65
2022-09-23T12:57:32.192Z,51.21
2022-09-23T13:00:14.011Z,49.88
2022-09-23T13:03:11.435Z,49.20
2022-09-23T13:06:11.155Z,50.58
2022-09-23T13:08:41.607Z,49.74
2022-09-23T13:11:23.657Z,50.68
2022-09-23T13:13:51.816Z,50.58
2022-09-23T13:16:26.237Z,50.42
2022-09-23T13:19:02.669Z,51.03
2022-09-23T13:21:45.017Z,51.39
2022-09-23T13:24:20.676Z,51.40
2022-09-23T13:26:51.828Z,51.21
2022-09-23T13:29:36.484Z,50.98
2022-09-23T13:32:06.492Z,51.19
2022-09-23T13:34:35.242Z,50.08
2022-09-23T13:37:22.644Z,50.24
2022-09-23T13:39:50.791Z,50.77
2022-09-23T13:42:27.392Z,50.18
2022-09-23T13:44:59.173Z,50.42
2022-09-23T13:47:29.469Z,50.64
2022-09-23T13:49:56.793Z,51.40
2022-09-23T13:52:32.877Z,51.89
2022-09-23T13:55:00.054Z,52.20
2022-09-23T13:57:31.690Z,52.19
2022-09-23T14:00:21.129Z,51.68
2022-09-23T14:02:47.927Z,52.41
2022-09-23T14:05:25.352Z,52.87
2022-09-23T14:07:54.427Z,53.11
2022-09-23T14:10:24.303Z,52.00
2022-09-23T14:12:52.939Z,50.34
2022-09-23T14:15:21.458Z,50.34
2022-09-23T14:17:52.922Z,51.17
2022-09-23T14:20:22.369Z,52.08
2022-09-23T14:23:20.841Z,52.03
2022-09-23T14:25:48.604Z,52.45
2022-09-23T14:28:25.636Z,52.36
2022-09-23T14:30:57.796Z,52.80
2022-09-23T14:33:40.969Z,53.01
2022-09-23T14:36:31.601Z,53.02
2022-09-23T14:39:09.035Z,53.50
2022-09-23T14:41:43.995Z,53.67
2022-09-23T14:44:28.262Z,53.11
2022-09-23T14:46:59.906Z,51.41
2022-09-23T14:49:27.683Z,49.52
2022-09-23T14:51:57.974Z,49.35
2022-09-23T14:54:40.051Z,49.00
2022-09-23T14:57:30.182Z,49.74
2022-09-23T15:00:20.326Z,50.59
2022-09-23T15:03:11.649Z,52.09
2022-09-23T15:05:46.889Z,52.60
2022-09-23T15:08:27.317Z,52.93
2022-09-23T15:10:54.830Z,52.46
2022-09-23T15:13:37.335Z,48.14
2022-09-23T15:16:05.767Z,46.17
2022-09-23T15:18:36.426Z,46.49
2022-09-23T15:21:11.339Z,46.62
2022-09-23T15:23:41.628Z,46.68
2022-09-23T15:26:39.470Z,46.69
2022-09-23T15:29:09.923Z,46.93
2022-09-23T15:31:37.502Z,48.03
2022-09-23T15:34:05.644Z,48.42
2022-09-23T15:36:33.041Z,48.56
2022-09-23T15:39:06.246Z,48.47
2022-09-23T15:41:35.708Z,49.61
2022-09-23T15:44:17.958Z,51.23
2022-09-23T15:46:50.378Z,52.64
2022-09-23T15:49:37.299Z,53.39
2022-09-23T15:52:06.199Z,53.52
2022-09-23T15:54:33.946Z,53.64
2022-09-23T15:57:01.346Z,53.87
2022-09-23T15:59:31.094Z,52.79
2022-09-23T16:02:02.387Z,52.44
2022-09-23T16:04:31.481Z,52.93
2022-09-23T16:06:59.154Z,53.19
2022-09-23T16:09:28.358Z,53.75
2022-09-23T16:11:55.238Z,53.72
2022-09-23T16:14:22.513Z,53.09
2022-09-23T16:16:49.340Z,50.74
2022-09-23T16:19:17.827Z,48.44
2022-09-23T16:21:44.886Z,48.31
2022-09-23T16:24:18.000Z,49.15
2022-09-23T16:26:46.935Z,49.89
2022-09-23T16:29:14.231Z,50.87
2022-09-23T16:31:41.295Z,51.43
2022-09-23T16:34:08.663Z,51.76
2022-09-23T16:36:40.610Z,52.43
2022-09-23T16:39:11.360Z,52.95
2022-09-23T16:41:38.513Z,53.62
2022-09-23T16:44:08.430Z,54.12
2022-09-23T16:46:35.406Z,54.48
2022-09-23T16:49:02.395Z,54.69
2022-09-23T16:51:33.506Z,54.94
2022-09-23T16:54:00.283Z,55.11
2022-09-23T16:56:29.324Z,55.16
2022-09-23T16:58:57.224Z,55.56
2022-09-23T17:01:46.086Z,55.72
2022-09-23T17:04:15.337Z,56.21
2022-09-23T17:06:51.270Z,56.36
2022-09-23T17:09:21.110Z,56.61
2022-09-23T17:12:11.843Z,56.59
2022-09-23T17:14:38.622Z,56.62
2022-09-23T17:17:06.765Z,56.70
2022-09-23T17:19:34.628Z,56.66
2022-09-23T17:22:01.421Z,56.46
2022-09-23T17:24:28.181Z,56.63
2022-09-23T17:26:55.506Z,56.81
2022-09-23T17:29:22.378Z,56.87
2022-09-23T17:31:49.202Z,56.83
2022-09-23T17:34:16.545Z,56.60
2022-09-23T17:36:43.296Z,56.44
2022-09-23T17:39:10.138Z,56.21
2022-09-23T17:41:39.230Z,56.21
2022-09-23T17:44:06.085Z,56.75
2022-09-23T17:46:32.861Z,56.95
2022-09-23T17:48:59.649Z,57.79
2022-09-23T17:51:27.232Z,58.06
2022-09-23T17:53:54.079Z,58.15
2022-09-23T17:56:25.138Z,58.22
2022-09-23T17:58:53.693Z,58.38
2022-09-23T18:01:23.920Z,58.32
2022-09-23T18:04:02.100Z,58.71
2022-09-23T18:06:32.008Z,58.92
2022-09-23T18:09:01.709Z,59.50
2022-09-23T18:11:37.888Z,59.68
2022-09-23T18:14:16.059Z,60.21
2022-09-23T18:16:45.187Z,60.72
2022-09-23T18:19:16.217Z,61.53
2022-09-23T18:21:50.820Z,62.48
2022-09-23T18:24:31.764Z,62.32
2022-09-23T18:27:00.239Z,62.98
2022-09-23T18:29:27.262Z,63.34
2022-09-23T18:31:54.202Z,63.28
2022-09-23T18:34:21.257Z,63.57
2022-09-23T18:36:48.285Z,63.70
2022-09-23T18:39:15.184Z,64.16
2022-09-23T18:41:42.213Z,64.20
2022-09-23T18:44:09.796Z,64.41
2022-09-23T18:46:36.881Z,64.69
2022-09-23T18:49:22.281Z,64.91
2022-09-23T18:51:55.979Z,65.12
2022-09-23T18:54:28.168Z,65.38
2022-09-23T18:56:56.746Z,65.75
2022-09-23T18:59:28.040Z,66.09
2022-09-23T19:01:55.932Z,66.04
2022-09-23T19:04:25.462Z,66.54
2022-09-23T19:06:53.823Z,66.65
2022-09-23T19:09:20.666Z,67.00
2022-09-23T19:11:52.272Z,67.27
2022-09-23T19:14:19.655Z,67.45
2022-09-23T19:16:49.122Z,67.86
2022-09-23T19:19:16.158Z,68.24
2022-09-23T19:21:42.924Z,68.03
2022-09-23T19:24:14.525Z,68.22
2022-09-23T19:26:42.277Z,68.86
2022-09-23T19:29:15.445Z,68.67
2022-09-23T19:31:43.497Z,69.06
2022-09-23T19:34:29.284Z,69.40
2022-09-23T19:36:57.762Z,69.08
2022-09-23T19:39:31.588Z,69.84
2022-09-23T19:41:59.108Z,69.71
2022-09-23T19:44:29.058Z,69.88
2022-09-23T19:46:57.423Z,70.31
2022-09-23T19:49:25.647Z,70.62
2022-09-23T19:51:56.080Z,70.76
2022-09-23T19:54:26.217Z,71.25
2022-09-23T19:56:53.033Z,70.84
2022-09-23T19:59:20.277Z,70.82
2022-09-23T20:01:48.482Z,71.32
2022-09-23T20:04:16.861Z,71.40
2022-09-23T20:06:43.805Z,71.81
2022-09-23T20:09:10.659Z,71.79
2022-09-23T20:11:37.640Z,72.29
2022-09-23T20:14:06.122Z,72.56
2022-09-23T20:16:35.767Z,72.82
2022-09-23T20:19:04.465Z,72.91
2022-09-23T20:21:31.970Z,73.19
2022-09-23T20:23:59.196Z,73.56
2022-09-23T20:26:44.963Z,73.53
2022-09-23T20:29:12.087Z,73.60
2022-09-23T20:31:41.662Z,73.50
2022-09-23T20:34:10.900Z,73.66
2022-09-23T20:36:41.307Z,73.66
2022-09-23T20:39:10.281Z,73.72
2022-09-23T20:41:39.450Z,74.48
2022-09-23T20:44:15.062Z,74.23
2022-09-23T20:46:48.111Z,74.36
2022-09-23T20:49:17.537Z,74.71
2022-09-23T20:51:44.827Z,74.61
2022-09-23T20:54:12.374Z,74.42
2022-09-23T20:56:39.464Z,74.31
2022-09-23T20:59:06.288Z,74.54
2022-09-23T21:01:35.443Z,74.71
2022-09-23T21:04:05.016Z,74.99
2022-09-23T21:06:31.937Z,75.02
2022-09-23T21:08:59.405Z,74.57
2022-09-23T21:11:26.538Z,74.96
2022-09-23T21:13:54.804Z,74.97
2022-09-23T21:16:23.123Z,75.05
2022-09-23T21:18:51.756Z,75.61
2022-09-23T21:21:19.865Z,75.50
2022-09-23T21:23:47.779Z,75.58
2022-09-23T21:26:20.815Z,75.84
2022-09-23T21:28:50.534Z,75.78
2022-09-23T21:31:23.910Z,76.04
2022-09-23T21:34:07.308Z,76.05
2022-09-23T21:36:39.574Z,75.91
2022-09-23T21:39:09.324Z,75.94
2022-09-23T21:41:37.698Z,76.19
2022-09-23T21:44:06.896Z,76.33
2022-09-23T21:46:34.611Z,76.05
2022-09-23T21:49:04.077Z,76.56
2022-09-23T21:51:42.750Z,76.36
2022-09-23T21:54:17.070Z,76.83
2022-09-23T21:56:44.696Z,76.66
2022-09-23T21:59:11.829Z,76.81
2022-09-23T22:01:43.744Z,76.69
2022-09-23T22:04:19.119Z,76.71
2022-09-23T22:06:48.959Z,77.26
2022-09-23T22:09:19.906Z,77.08
2022-09-23T22:12:05.257Z,77.11
2022-09-23T22:14:32.517Z,77.30
2022-09-23T22:17:02.682Z,77.69
2022-09-23T22:19:35.926Z,77.96
2022-09-23T22:22:13.669Z,78.02
2022-09-23T22:24:41.935Z,78.45
2022-09-23T22:27:14.224Z,78.98
2022-09-23T22:29:59.948Z,78.71
2022-09-23T22:32:41.872Z,79.10
2022-09-23T22:35:11.552Z,78.72
2022-09-23T22:37:39.302Z,78.81
2022-09-23T22:40:14.610Z,78.39
2022-09-23T22:42:42.807Z,78.68
2022-09-23T22:45:11.193Z,78.77
2022-09-23T22:47:40.540Z,78.72
2022-09-23T22:50:09.679Z,78.92
2022-09-23T22:52:37.994Z,78.74
2022-09-23T22:55:08.109Z,78.98
2022-09-23T22:57:36.680Z,78.83
2022-09-23T23:00:08.380Z,78.87
2022-09-23T23:02:35.236Z,78.85
2022-09-23T23:05:02.736Z,79.10
2022-09-23T23:07:29.484Z,78.97
2022-09-23T23:09:56.264Z,79.47
2022-09-23T23:12:23.093Z,79.60
2022-09-23T23:14:49.911Z,79.22
2022-09-23T23:17:18.810Z,79.14
2022-09-23T23:19:45.669Z,79.34
2022-09-23T23:22:12.481Z,79.90
2022-09-23T23:24:39.262Z,79.75
2022-09-23T23:27:06.083Z,79.72
2022-09-23T23:29:33.014Z,79.80
2022-09-23T23:31:59.816Z,79.78
2022-09-23T23:34:26.641Z,80.03
2022-09-23T23:36:57.249Z,80.08
2022-09-23T23:39:25.362Z,80.45
2022-09-23T23:41:57.695Z,80.13
2022-09-23T23:44:26.950Z,80.24
2022-09-23T23:46:55.064Z,80.41
2022-09-23T23:49:22.006Z,80.48
2022-09-23T23:51:48.995Z,80.26
2022-09-23T23:54:16.032Z,80.98
2022-09-23T23:56:43.514Z,80.66
2022-09-23T23:59:10.382Z,80.28
